sensor_id;sensor_type;location;lat;lon;timestamp;temperature;humidity
38592;DHT22;24356;48.460;11.450;2023-04-25T00:01:26;5.70;82.10
38592;DHT22;24356;48.460;11.450;2023-04-25T00:03:52;5.70;82.20
38592;DHT22;24356;48.460;11.450;2023-04-25T00:06:17;5.70;82.20
38592;DHT22;24356;48.460;11.450;2023-04-25T00:08:43;5.70;82.10
38592;DHT22;24356;48.460;11.450;2023-04-25T00:11:09;5.70;82.20
38592;DHT22;24356;48.460;11.450;2023-04-25T00:13:35;5.70;82.10
38592;DHT22;24356;48.460;11.450;2023-04-25T00:16:00;5.70;82.20
38592;DHT22;24356;48.460;11.450;2023-04-25T00:18:28;5.60;82.30
38592;DHT22;24356;48.460;11.450;2023-04-25T00:20:54;5.70;82.30
38592;DHT22;24356;48.460;11.450;2023-04-25T00:23:21;5.60;82.20
38592;DHT22;24356;48.460;11.450;2023-04-25T00:25:48;5.60;82.30
38592;DHT22;24356;48.460;11.450;2023-04-25T00:28:15;5.60;82.30
38592;DHT22;24356;48.460;11.450;2023-04-25T00:30:42;5.60;82.30
38592;DHT22;24356;48.460;11.450;2023-04-25T00:33:08;5.60;82.30
38592;DHT22;24356;48.460;11.450;2023-04-25T00:35:34;5.60;82.30
38592;DHT22;24356;48.460;11.450;2023-04-25T00:38:00;5.50;82.50
38592;DHT22;24356;48.460;11.450;2023-04-25T00:40:26;5.50;82.50
38592;DHT22;24356;48.460;11.450;2023-04-25T00:42:53;5.50;82.50
38592;DHT22;24356;48.460;11.450;2023-04-25T00:45:19;5.50;82.60
38592;DHT22;24356;48.460;11.450;2023-04-25T00:47:45;5.50;82.50
38592;DHT22;24356;48.460;11.450;2023-04-25T00:50:11;5.60;82.60
38592;DHT22;24356;48.460;11.450;2023-04-25T00:52:42;5.60;82.50
38592;DHT22;24356;48.460;11.450;2023-04-25T00:55:09;5.50;82.50
38592;DHT22;24356;48.460;11.450;2023-04-25T00:57:36;5.60;82.70
38592;DHT22;24356;48.460;11.450;2023-04-25T01:00:04;5.50;82.50
38592;DHT22;24356;48.460;11.450;2023-04-25T01:02:32;5.60;82.60
38592;DHT22;24356;48.460;11.450;2023-04-25T01:04:58;5.60;82.50
38592;DHT22;24356;48.460;11.450;2023-04-25T01:07:24;5.60;82.60
38592;DHT22;24356;48.460;11.450;2023-04-25T01:09:54;5.50;82.60
38592;DHT22;24356;48.460;11.450;2023-04-25T01:12:20;5.60;82.50
38592;DHT22;24356;48.460;11.450;2023-04-25T01:14:46;5.60;82.50
38592;DHT22;24356;48.460;11.450;2023-04-25T01:17:11;5.60;82.40
38592;DHT22;24356;48.460;11.450;2023-04-25T01:19:37;5.60;82.50
38592;DHT22;24356;48.460;11.450;2023-04-25T01:22:03;5.60;82.50
38592;DHT22;24356;48.460;11.450;2023-04-25T01:24:31;5.60;82.50
38592;DHT22;24356;48.460;11.450;2023-04-25T01:27:00;5.60;82.50
38592;DHT22;24356;48.460;11.450;2023-04-25T01:29:26;5.60;82.60
38592;DHT22;24356;48.460;11.450;2023-04-25T01:31:52;5.70;82.40
38592;DHT22;24356;48.460;11.450;2023-04-25T01:34:18;5.70;82.50
38592;DHT22;24356;48.460;11.450;2023-04-25T01:36:44;5.70;82.50
38592;DHT22;24356;48.460;11.450;2023-04-25T01:39:10;5.70;82.50
38592;DHT22;24356;48.460;11.450;2023-04-25T01:41:36;5.70;82.40
38592;DHT22;24356;48.460;11.450;2023-04-25T01:44:02;5.70;82.50
38592;DHT22;24356;48.460;11.450;2023-04-25T01:46:28;5.70;82.50
38592;DHT22;24356;48.460;11.450;2023-04-25T01:48:53;5.70;82.50
38592;DHT22;24356;48.460;11.450;2023-04-25T01:51:20;5.70;82.50
38592;DHT22;24356;48.460;11.450;2023-04-25T01:53:45;5.70;82.50
38592;DHT22;24356;48.460;11.450;2023-04-25T01:56:12;5.70;82.50
38592;DHT22;24356;48.460;11.450;2023-04-25T01:58:38;5.70;82.60
38592;DHT22;24356;48.460;11.450;2023-04-25T02:01:04;5.70;82.60
38592;DHT22;24356;48.460;11.450;2023-04-25T02:03:31;5.70;82.60
38592;DHT22;24356;48.460;11.450;2023-04-25T02:05:57;5.70;82.50
38592;DHT22;24356;48.460;11.450;2023-04-25T02:08:22;5.70;82.60
38592;DHT22;24356;48.460;11.450;2023-04-25T02:10:48;5.70;82.60
38592;DHT22;24356;48.460;11.450;2023-04-25T02:13:14;5.70;82.50
38592;DHT22;24356;48.460;11.450;2023-04-25T02:15:39;5.70;82.50
38592;DHT22;24356;48.460;11.450;2023-04-25T02:18:06;5.70;82.60
38592;DHT22;24356;48.460;11.450;2023-04-25T02:20:32;5.70;82.50
38592;DHT22;24356;48.460;11.450;2023-04-25T02:22:58;5.80;82.50
38592;DHT22;24356;48.460;11.450;2023-04-25T02:25:24;5.80;82.50
38592;DHT22;24356;48.460;11.450;2023-04-25T02:27:49;5.80;82.50
38592;DHT22;24356;48.460;11.450;2023-04-25T02:30:16;5.80;82.50
38592;DHT22;24356;48.460;11.450;2023-04-25T02:32:42;5.70;82.50
38592;DHT22;24356;48.460;11.450;2023-04-25T02:35:08;5.70;82.70
38592;DHT22;24356;48.460;11.450;2023-04-25T02:37:35;5.70;82.50
38592;DHT22;24356;48.460;11.450;2023-04-25T02:40:01;5.70;82.50
38592;DHT22;24356;48.460;11.450;2023-04-25T02:42:27;5.70;82.60
38592;DHT22;24356;48.460;11.450;2023-04-25T02:44:53;5.70;82.60
38592;DHT22;24356;48.460;11.450;2023-04-25T02:47:19;5.60;82.60
38592;DHT22;24356;48.460;11.450;2023-04-25T02:49:45;5.60;82.60
38592;DHT22;24356;48.460;11.450;2023-04-25T02:52:11;5.60;82.70
38592;DHT22;24356;48.460;11.450;2023-04-25T02:54:38;5.60;82.70
38592;DHT22;24356;48.460;11.450;2023-04-25T02:57:04;5.60;82.70
38592;DHT22;24356;48.460;11.450;2023-04-25T02:59:29;5.50;82.80
38592;DHT22;24356;48.460;11.450;2023-04-25T03:01:55;5.50;82.80
38592;DHT22;24356;48.460;11.450;2023-04-25T03:04:22;5.50;82.90
38592;DHT22;24356;48.460;11.450;2023-04-25T03:06:52;5.50;82.90
38592;DHT22;24356;48.460;11.450;2023-04-25T03:09:18;5.60;82.80
38592;DHT22;24356;48.460;11.450;2023-04-25T03:11:45;5.60;82.80
38592;DHT22;24356;48.460;11.450;2023-04-25T03:14:11;5.60;82.90
38592;DHT22;24356;48.460;11.450;2023-04-25T03:16:37;5.60;82.90
38592;DHT22;24356;48.460;11.450;2023-04-25T03:19:03;5.60;82.80
38592;DHT22;24356;48.460;11.450;2023-04-25T03:21:29;5.60;82.80
38592;DHT22;24356;48.460;11.450;2023-04-25T03:23:58;5.60;83.10
38592;DHT22;24356;48.460;11.450;2023-04-25T03:26:24;5.60;83.10
38592;DHT22;24356;48.460;11.450;2023-04-25T03:28:50;5.60;82.90
38592;DHT22;24356;48.460;11.450;2023-04-25T03:31:16;5.70;83.20
38592;DHT22;24356;48.460;11.450;2023-04-25T03:33:41;5.70;82.90
38592;DHT22;24356;48.460;11.450;2023-04-25T03:36:07;5.70;83.20
38592;DHT22;24356;48.460;11.450;2023-04-25T03:38:33;5.70;83.10
38592;DHT22;24356;48.460;11.450;2023-04-25T03:40:59;5.70;82.90
38592;DHT22;24356;48.460;11.450;2023-04-25T03:43:24;5.70;83.10
38592;DHT22;24356;48.460;11.450;2023-04-25T03:45:51;5.70;83.30
38592;DHT22;24356;48.460;11.450;2023-04-25T03:48:18;5.80;83.20
38592;DHT22;24356;48.460;11.450;2023-04-25T03:50:47;5.80;83.10
38592;DHT22;24356;48.460;11.450;2023-04-25T03:53:12;5.80;82.90
38592;DHT22;24356;48.460;11.450;2023-04-25T03:55:38;5.80;83.00
38592;DHT22;24356;48.460;11.450;2023-04-25T03:58:03;5.80;83.00
38592;DHT22;24356;48.460;11.450;2023-04-25T04:00:29;5.80;82.90
38592;DHT22;24356;48.460;11.450;2023-04-25T04:02:54;5.80;82.90
38592;DHT22;24356;48.460;11.450;2023-04-25T04:05:20;5.80;82.80
38592;DHT22;24356;48.460;11.450;2023-04-25T04:07:46;5.90;82.70
38592;DHT22;24356;48.460;11.450;2023-04-25T04:10:12;5.90;83.00
38592;DHT22;24356;48.460;11.450;2023-04-25T04:12:38;5.90;82.80
38592;DHT22;24356;48.460;11.450;2023-04-25T04:15:05;5.90;83.10
38592;DHT22;24356;48.460;11.450;2023-04-25T04:17:31;5.90;83.30
38592;DHT22;24356;48.460;11.450;2023-04-25T04:19:57;5.90;83.30
38592;DHT22;24356;48.460;11.450;2023-04-25T04:22:23;5.90;83.10
38592;DHT22;24356;48.460;11.450;2023-04-25T04:24:49;5.90;82.80
38592;DHT22;24356;48.460;11.450;2023-04-25T04:27:19;5.90;82.80
38592;DHT22;24356;48.460;11.450;2023-04-25T04:29:46;5.90;83.10
38592;DHT22;24356;48.460;11.450;2023-04-25T04:32:13;5.90;83.00
38592;DHT22;24356;48.460;11.450;2023-04-25T04:34:39;5.90;82.80
38592;DHT22;24356;48.460;11.450;2023-04-25T04:37:06;5.90;82.60
38592;DHT22;24356;48.460;11.450;2023-04-25T04:39:33;5.90;82.70
38592;DHT22;24356;48.460;11.450;2023-04-25T04:41:59;5.90;83.10
38592;DHT22;24356;48.460;11.450;2023-04-25T04:44:26;5.90;83.00
38592;DHT22;24356;48.460;11.450;2023-04-25T04:46:52;5.90;82.90
38592;DHT22;24356;48.460;11.450;2023-04-25T04:49:21;6.00;83.10
38592;DHT22;24356;48.460;11.450;2023-04-25T04:51:46;6.00;82.80
38592;DHT22;24356;48.460;11.450;2023-04-25T04:54:14;6.00;83.00
38592;DHT22;24356;48.460;11.450;2023-04-25T04:56:40;6.00;83.00
38592;DHT22;24356;48.460;11.450;2023-04-25T04:59:07;6.00;83.00
38592;DHT22;24356;48.460;11.450;2023-04-25T05:01:32;6.10;83.00
38592;DHT22;24356;48.460;11.450;2023-04-25T05:04:00;6.10;83.10
38592;DHT22;24356;48.460;11.450;2023-04-25T05:06:27;6.10;83.20
38592;DHT22;24356;48.460;11.450;2023-04-25T05:08:52;6.10;82.80
38592;DHT22;24356;48.460;11.450;2023-04-25T05:11:19;6.10;82.90
38592;DHT22;24356;48.460;11.450;2023-04-25T05:13:44;6.20;82.80
38592;DHT22;24356;48.460;11.450;2023-04-25T05:16:11;6.20;82.90
38592;DHT22;24356;48.460;11.450;2023-04-25T05:18:37;6.20;83.00
38592;DHT22;24356;48.460;11.450;2023-04-25T05:21:03;6.20;83.20
38592;DHT22;24356;48.460;11.450;2023-04-25T05:23:28;6.20;82.70
38592;DHT22;24356;48.460;11.450;2023-04-25T05:25:56;6.30;82.90
38592;DHT22;24356;48.460;11.450;2023-04-25T05:28:21;6.30;83.10
38592;DHT22;24356;48.460;11.450;2023-04-25T05:30:48;6.30;82.70
38592;DHT22;24356;48.460;11.450;2023-04-25T05:33:14;6.30;82.70
38592;DHT22;24356;48.460;11.450;2023-04-25T05:35:41;6.30;82.90
38592;DHT22;24356;48.460;11.450;2023-04-25T05:38:06;6.40;82.90
38592;DHT22;24356;48.460;11.450;2023-04-25T05:40:32;6.40;83.20
38592;DHT22;24356;48.460;11.450;2023-04-25T05:42:57;6.40;82.80
38592;DHT22;24356;48.460;11.450;2023-04-25T05:45:23;6.40;82.60
38592;DHT22;24356;48.460;11.450;2023-04-25T05:47:49;6.50;82.60
38592;DHT22;24356;48.460;11.450;2023-04-25T05:50:15;6.50;82.60
38592;DHT22;24356;48.460;11.450;2023-04-25T05:52:40;6.50;82.60
38592;DHT22;24356;48.460;11.450;2023-04-25T05:55:06;6.60;82.60
38592;DHT22;24356;48.460;11.450;2023-04-25T05:57:32;6.60;82.60
38592;DHT22;24356;48.460;11.450;2023-04-25T05:59:57;6.60;83.00
38592;DHT22;24356;48.460;11.450;2023-04-25T06:02:23;6.60;83.10
38592;DHT22;24356;48.460;11.450;2023-04-25T06:04:52;6.70;83.00
38592;DHT22;24356;48.460;11.450;2023-04-25T06:07:18;6.70;83.00
38592;DHT22;24356;48.460;11.450;2023-04-25T06:09:45;6.80;83.30
38592;DHT22;24356;48.460;11.450;2023-04-25T06:12:10;6.80;83.30
38592;DHT22;24356;48.460;11.450;2023-04-25T06:14:36;6.80;83.20
38592;DHT22;24356;48.460;11.450;2023-04-25T06:17:03;6.80;83.50
38592;DHT22;24356;48.460;11.450;2023-04-25T06:19:32;6.80;83.70
38592;DHT22;24356;48.460;11.450;2023-04-25T06:21:58;6.80;83.80
38592;DHT22;24356;48.460;11.450;2023-04-25T06:24:24;6.80;83.80
38592;DHT22;24356;48.460;11.450;2023-04-25T06:26:50;6.80;83.80
38592;DHT22;24356;48.460;11.450;2023-04-25T06:29:17;6.80;83.90
38592;DHT22;24356;48.460;11.450;2023-04-25T06:31:42;6.80;83.70
38592;DHT22;24356;48.460;11.450;2023-04-25T06:34:08;6.90;83.80
38592;DHT22;24356;48.460;11.450;2023-04-25T06:36:33;6.90;84.00
38592;DHT22;24356;48.460;11.450;2023-04-25T06:38:59;6.90;84.20
38592;DHT22;24356;48.460;11.450;2023-04-25T06:41:24;7.20;85.00
38592;DHT22;24356;48.460;11.450;2023-04-25T06:43:50;7.60;84.10
38592;DHT22;24356;48.460;11.450;2023-04-25T06:46:16;8.00;83.50
38592;DHT22;24356;48.460;11.450;2023-04-25T06:48:41;8.40;82.90
38592;DHT22;24356;48.460;11.450;2023-04-25T06:51:07;8.70;82.10
38592;DHT22;24356;48.460;11.450;2023-04-25T06:53:33;9.00;81.50
38592;DHT22;24356;48.460;11.450;2023-04-25T06:55:58;9.30;81.10
38592;DHT22;24356;48.460;11.450;2023-04-25T06:58:24;9.40;80.50
38592;DHT22;24356;48.460;11.450;2023-04-25T07:00:51;9.50;80.40
38592;DHT22;24356;48.460;11.450;2023-04-25T07:03:17;9.50;80.10
38592;DHT22;24356;48.460;11.450;2023-04-25T07:05:42;9.60;80.40
38592;DHT22;24356;48.460;11.450;2023-04-25T07:08:08;9.70;80.20
38592;DHT22;24356;48.460;11.450;2023-04-25T07:10:33;9.90;80.20
38592;DHT22;24356;48.460;11.450;2023-04-25T07:12:59;10.20;80.00
38592;DHT22;24356;48.460;11.450;2023-04-25T07:15:25;10.60;79.70
38592;DHT22;24356;48.460;11.450;2023-04-25T07:17:51;11.00;79.10
38592;DHT22;24356;48.460;11.450;2023-04-25T07:20:17;11.40;78.00
38592;DHT22;24356;48.460;11.450;2023-04-25T07:22:42;11.50;77.20
38592;DHT22;24356;48.460;11.450;2023-04-25T07:25:08;11.50;77.00
38592;DHT22;24356;48.460;11.450;2023-04-25T07:27:35;11.40;77.20
38592;DHT22;24356;48.460;11.450;2023-04-25T07:30:01;11.30;77.40
38592;DHT22;24356;48.460;11.450;2023-04-25T07:32:26;11.10;77.60
38592;DHT22;24356;48.460;11.450;2023-04-25T07:34:52;11.00;78.10
38592;DHT22;24356;48.460;11.450;2023-04-25T07:37:18;11.00;78.50
38592;DHT22;24356;48.460;11.450;2023-04-25T07:39:45;11.20;79.00
38592;DHT22;24356;48.460;11.450;2023-04-25T07:42:12;11.50;79.20
38592;DHT22;24356;48.460;11.450;2023-04-25T07:44:37;11.90;79.30
38592;DHT22;24356;48.460;11.450;2023-04-25T07:47:08;12.30;78.30
38592;DHT22;24356;48.460;11.450;2023-04-25T07:49:34;12.60;77.80
38592;DHT22;24356;48.460;11.450;2023-04-25T07:52:03;12.90;78.10
38592;DHT22;24356;48.460;11.450;2023-04-25T07:54:29;13.20;76.90
38592;DHT22;24356;48.460;11.450;2023-04-25T07:56:55;13.40;75.80
38592;DHT22;24356;48.460;11.450;2023-04-25T07:59:21;13.40;75.90
38592;DHT22;24356;48.460;11.450;2023-04-25T08:01:48;13.40;75.20
38592;DHT22;24356;48.460;11.450;2023-04-25T08:04:13;13.50;75.80
38592;DHT22;24356;48.460;11.450;2023-04-25T08:06:39;13.50;75.00
38592;DHT22;24356;48.460;11.450;2023-04-25T08:09:06;13.50;75.00
38592;DHT22;24356;48.460;11.450;2023-04-25T08:11:31;13.60;75.00
38592;DHT22;24356;48.460;11.450;2023-04-25T08:13:57;13.70;75.50
38592;DHT22;24356;48.460;11.450;2023-04-25T08:16:22;14.00;76.00
38592;DHT22;24356;48.460;11.450;2023-04-25T08:18:49;14.40;75.60
38592;DHT22;24356;48.460;11.450;2023-04-25T08:21:15;14.70;74.20
38592;DHT22;24356;48.460;11.450;2023-04-25T08:23:41;14.80;73.70
38592;DHT22;24356;48.460;11.450;2023-04-25T08:26:07;14.80;73.30
38592;DHT22;24356;48.460;11.450;2023-04-25T08:28:32;14.60;73.30
38592;DHT22;24356;48.460;11.450;2023-04-25T08:30:58;14.30;72.60
38592;DHT22;24356;48.460;11.450;2023-04-25T08:33:23;14.00;72.10
38592;DHT22;24356;48.460;11.450;2023-04-25T08:35:50;13.70;72.10
38592;DHT22;24356;48.460;11.450;2023-04-25T08:38:17;13.40;72.20
38592;DHT22;24356;48.460;11.450;2023-04-25T08:40:43;13.10;72.70
38592;DHT22;24356;48.460;11.450;2023-04-25T08:43:12;12.90;73.60
38592;DHT22;24356;48.460;11.450;2023-04-25T08:45:42;12.80;74.50
38592;DHT22;24356;48.460;11.450;2023-04-25T08:48:10;12.80;75.80
38592;DHT22;24356;48.460;11.450;2023-04-25T08:50:45;13.00;76.50
38592;DHT22;24356;48.460;11.450;2023-04-25T08:53:14;13.30;76.70
38592;DHT22;24356;48.460;11.450;2023-04-25T08:55:46;13.80;76.20
38592;DHT22;24356;48.460;11.450;2023-04-25T08:58:13;14.30;75.40
38592;DHT22;24356;48.460;11.450;2023-04-25T09:00:39;14.70;74.80
38592;DHT22;24356;48.460;11.450;2023-04-25T09:03:05;15.10;74.00
38592;DHT22;24356;48.460;11.450;2023-04-25T09:05:33;15.60;73.70
38592;DHT22;24356;48.460;11.450;2023-04-25T09:07:58;16.00;72.70
38592;DHT22;24356;48.460;11.450;2023-04-25T09:10:26;16.50;72.60
38592;DHT22;24356;48.460;11.450;2023-04-25T09:13:07;16.80;71.30
38592;DHT22;24356;48.460;11.450;2023-04-25T09:15:48;16.90;70.50
38592;DHT22;24356;48.460;11.450;2023-04-25T09:18:22;17.10;69.60
38592;DHT22;24356;48.460;11.450;2023-04-25T09:20:49;17.20;70.40
38592;DHT22;24356;48.460;11.450;2023-04-25T09:23:14;17.40;70.10
38592;DHT22;24356;48.460;11.450;2023-04-25T09:25:40;17.50;69.50
38592;DHT22;24356;48.460;11.450;2023-04-25T09:28:08;17.70;69.20
38592;DHT22;24356;48.460;11.450;2023-04-25T09:30:35;17.90;68.60
38592;DHT22;24356;48.460;11.450;2023-04-25T09:33:05;18.10;68.50
38592;DHT22;24356;48.460;11.450;2023-04-25T09:35:36;18.30;68.50
38592;DHT22;24356;48.460;11.450;2023-04-25T09:38:14;18.50;68.00
38592;DHT22;24356;48.460;11.450;2023-04-25T09:40:45;18.40;67.30
38592;DHT22;24356;48.460;11.450;2023-04-25T09:43:22;18.30;67.50
38592;DHT22;24356;48.460;11.450;2023-04-25T09:45:50;18.00;69.10
38592;DHT22;24356;48.460;11.450;2023-04-25T09:48:22;17.70;68.20
38592;DHT22;24356;48.460;11.450;2023-04-25T09:51:06;17.30;68.30
38592;DHT22;24356;48.460;11.450;2023-04-25T09:53:37;17.20;68.60
38592;DHT22;24356;48.460;11.450;2023-04-25T09:56:05;17.30;67.30
38592;DHT22;24356;48.460;11.450;2023-04-25T09:58:32;17.60;66.40
38592;DHT22;24356;48.460;11.450;2023-04-25T10:01:04;17.80;67.00
38592;DHT22;24356;48.460;11.450;2023-04-25T10:03:33;18.10;66.00
38592;DHT22;24356;48.460;11.450;2023-04-25T10:06:02;18.40;66.20
38592;DHT22;24356;48.460;11.450;2023-04-25T10:08:33;18.40;66.80
38592;DHT22;24356;48.460;11.450;2023-04-25T10:11:07;18.30;66.50
38592;DHT22;24356;48.460;11.450;2023-04-25T10:13:34;18.00;65.40
38592;DHT22;24356;48.460;11.450;2023-04-25T10:16:03;17.70;65.90
38592;DHT22;24356;48.460;11.450;2023-04-25T10:18:30;17.40;67.60
38592;DHT22;24356;48.460;11.450;2023-04-25T10:21:01;17.20;67.30
38592;DHT22;24356;48.460;11.450;2023-04-25T10:23:27;17.00;66.80
38592;DHT22;24356;48.460;11.450;2023-04-25T10:25:55;16.80;68.20
38592;DHT22;24356;48.460;11.450;2023-04-25T10:28:21;16.70;68.20
38592;DHT22;24356;48.460;11.450;2023-04-25T10:31:07;16.60;67.80
38592;DHT22;24356;48.460;11.450;2023-04-25T10:33:37;16.50;68.80
38592;DHT22;24356;48.460;11.450;2023-04-25T10:36:14;16.30;68.70
38592;DHT22;24356;48.460;11.450;2023-04-25T10:38:45;16.10;68.50
38592;DHT22;24356;48.460;11.450;2023-04-25T10:41:12;15.80;69.00
38592;DHT22;24356;48.460;11.450;2023-04-25T10:43:42;15.60;69.20
38592;DHT22;24356;48.460;11.450;2023-04-25T10:46:19;15.30;70.30
38592;DHT22;24356;48.460;11.450;2023-04-25T10:48:58;15.10;71.30
38592;DHT22;24356;48.460;11.450;2023-04-25T10:56:29;14.90;72.50
38592;DHT22;24356;48.460;11.450;2023-04-25T11:01:49;14.80;72.40
38592;DHT22;24356;48.460;11.450;2023-04-25T11:04:32;14.70;72.30
38592;DHT22;24356;48.460;11.450;2023-04-25T11:09:35;14.70;72.70
38592;DHT22;24356;48.460;11.450;2023-04-25T11:12:00;14.70;72.70
38592;DHT22;24356;48.460;11.450;2023-04-25T11:14:27;14.70;73.00
38592;DHT22;24356;48.460;11.450;2023-04-25T11:16:53;14.70;73.00
38592;DHT22;24356;48.460;11.450;2023-04-25T11:19:21;14.70;72.70
38592;DHT22;24356;48.460;11.450;2023-04-25T11:21:46;14.60;72.70
38592;DHT22;24356;48.460;11.450;2023-04-25T11:24:12;14.60;72.70
38592;DHT22;24356;48.460;11.450;2023-04-25T11:26:38;14.50;72.70
38592;DHT22;24356;48.460;11.450;2023-04-25T11:29:04;14.40;72.70
38592;DHT22;24356;48.460;11.450;2023-04-25T11:31:29;14.20;72.70
38592;DHT22;24356;48.460;11.450;2023-04-25T11:33:58;14.10;72.60
38592;DHT22;24356;48.460;11.450;2023-04-25T11:36:25;14.00;72.30
38592;DHT22;24356;48.460;11.450;2023-04-25T11:38:52;13.80;72.50
38592;DHT22;24356;48.460;11.450;2023-04-25T11:41:19;13.70;72.70
38592;DHT22;24356;48.460;11.450;2023-04-25T11:43:45;13.60;72.60
38592;DHT22;24356;48.460;11.450;2023-04-25T11:46:11;13.50;73.40
38592;DHT22;24356;48.460;11.450;2023-04-25T11:48:41;13.30;73.90
38592;DHT22;24356;48.460;11.450;2023-04-25T11:51:07;13.20;73.30
38592;DHT22;24356;48.460;11.450;2023-04-25T11:53:32;13.00;73.70
38592;DHT22;24356;48.460;11.450;2023-04-25T11:55:58;12.80;74.20
38592;DHT22;24356;48.460;11.450;2023-04-25T11:58:25;12.70;74.40
38592;DHT22;24356;48.460;11.450;2023-04-25T12:00:51;12.50;74.80
38592;DHT22;24356;48.460;11.450;2023-04-25T12:03:17;12.30;75.50
38592;DHT22;24356;48.460;11.450;2023-04-25T12:05:45;12.20;75.80
38592;DHT22;24356;48.460;11.450;2023-04-25T12:08:14;12.00;75.70
38592;DHT22;24356;48.460;11.450;2023-04-25T12:10:42;11.80;76.40
38592;DHT22;24356;48.460;11.450;2023-04-25T12:13:37;11.70;76.40
38592;DHT22;24356;48.460;11.450;2023-04-25T12:16:03;11.50;76.30
38592;DHT22;24356;48.460;11.450;2023-04-25T12:18:29;11.40;76.40
38592;DHT22;24356;48.460;11.450;2023-04-25T12:20:55;11.20;76.50
38592;DHT22;24356;48.460;11.450;2023-04-25T12:23:28;11.10;76.80
38592;DHT22;24356;48.460;11.450;2023-04-25T12:25:54;11.00;77.10
38592;DHT22;24356;48.460;11.450;2023-04-25T12:28:21;10.90;77.10
38592;DHT22;24356;48.460;11.450;2023-04-25T12:33:30;10.80;77.40
38592;DHT22;24356;48.460;11.450;2023-04-25T12:35:57;10.80;77.60
38592;DHT22;24356;48.460;11.450;2023-04-25T12:38:30;10.80;77.70
38592;DHT22;24356;48.460;11.450;2023-04-25T12:40:57;10.70;77.50
38592;DHT22;24356;48.460;11.450;2023-04-25T12:43:23;10.80;77.00
38592;DHT22;24356;48.460;11.450;2023-04-25T12:45:51;10.80;76.70
38592;DHT22;24356;48.460;11.450;2023-04-25T12:48:17;10.80;77.90
38592;DHT22;24356;48.460;11.450;2023-04-25T12:50:44;10.80;78.50
38592;DHT22;24356;48.460;11.450;2023-04-25T12:53:11;10.90;78.70
38592;DHT22;24356;48.460;11.450;2023-04-25T12:55:38;10.90;78.70
38592;DHT22;24356;48.460;11.450;2023-04-25T12:58:03;11.00;78.80
38592;DHT22;24356;48.460;11.450;2023-04-25T13:00:30;11.00;78.70
38592;DHT22;24356;48.460;11.450;2023-04-25T13:02:56;11.00;78.60
38592;DHT22;24356;48.460;11.450;2023-04-25T13:05:21;11.00;78.60
38592;DHT22;24356;48.460;11.450;2023-04-25T13:07:47;11.00;78.40
38592;DHT22;24356;48.460;11.450;2023-04-25T13:10:13;10.90;78.40
38592;DHT22;24356;48.460;11.450;2023-04-25T13:12:39;10.90;78.30
38592;DHT22;24356;48.460;11.450;2023-04-25T13:15:05;10.80;78.50
38592;DHT22;24356;48.460;11.450;2023-04-25T13:17:30;10.80;78.10
38592;DHT22;24356;48.460;11.450;2023-04-25T13:19:56;10.80;78.00
38592;DHT22;24356;48.460;11.450;2023-04-25T13:22:22;10.70;77.80
38592;DHT22;24356;48.460;11.450;2023-04-25T13:24:47;10.70;77.70
38592;DHT22;24356;48.460;11.450;2023-04-25T13:27:13;10.60;78.00
38592;DHT22;24356;48.460;11.450;2023-04-25T13:29:40;10.60;78.30
38592;DHT22;24356;48.460;11.450;2023-04-25T13:32:07;10.50;78.10
38592;DHT22;24356;48.460;11.450;2023-04-25T13:34:33;10.50;77.80
38592;DHT22;24356;48.460;11.450;2023-04-25T13:36:58;10.40;77.90
38592;DHT22;24356;48.460;11.450;2023-04-25T13:39:24;10.40;78.20
38592;DHT22;24356;48.460;11.450;2023-04-25T13:41:50;10.40;78.30
38592;DHT22;24356;48.460;11.450;2023-04-25T13:44:15;10.40;78.80
38592;DHT22;24356;48.460;11.450;2023-04-25T13:46:41;10.40;78.60
38592;DHT22;24356;48.460;11.450;2023-04-25T13:49:07;10.30;78.90
38592;DHT22;24356;48.460;11.450;2023-04-25T13:51:32;10.30;79.00
38592;DHT22;24356;48.460;11.450;2023-04-25T13:53:58;10.30;79.10
38592;DHT22;24356;48.460;11.450;2023-04-25T13:56:23;10.30;79.00
38592;DHT22;24356;48.460;11.450;2023-04-25T13:58:52;10.20;78.10
38592;DHT22;24356;48.460;11.450;2023-04-25T14:01:18;10.20;78.00
38592;DHT22;24356;48.460;11.450;2023-04-25T14:03:45;10.20;78.50
38592;DHT22;24356;48.460;11.450;2023-04-25T14:06:10;10.10;78.70
38592;DHT22;24356;48.460;11.450;2023-04-25T14:08:38;10.10;78.90
38592;DHT22;24356;48.460;11.450;2023-04-25T14:11:03;10.00;78.90
38592;DHT22;24356;48.460;11.450;2023-04-25T14:13:29;10.00;78.50
38592;DHT22;24356;48.460;11.450;2023-04-25T14:15:55;10.00;78.60
38592;DHT22;24356;48.460;11.450;2023-04-25T14:18:20;10.00;78.50
38592;DHT22;24356;48.460;11.450;2023-04-25T14:20:46;10.00;78.80
38592;DHT22;24356;48.460;11.450;2023-04-25T14:23:14;10.00;79.60
38592;DHT22;24356;48.460;11.450;2023-04-25T14:25:39;10.10;79.90
38592;DHT22;24356;48.460;11.450;2023-04-25T14:28:07;10.10;80.40
38592;DHT22;24356;48.460;11.450;2023-04-25T14:30:32;10.20;80.10
38592;DHT22;24356;48.460;11.450;2023-04-25T14:32:58;10.30;80.10
38592;DHT22;24356;48.460;11.450;2023-04-25T14:35:24;10.40;79.80
38592;DHT22;24356;48.460;11.450;2023-04-25T14:37:49;10.50;80.50
38592;DHT22;24356;48.460;11.450;2023-04-25T14:40:15;10.60;80.00
38592;DHT22;24356;48.460;11.450;2023-04-25T14:42:42;10.70;80.00
38592;DHT22;24356;48.460;11.450;2023-04-25T14:45:08;10.80;80.00
38592;DHT22;24356;48.460;11.450;2023-04-25T14:47:35;10.80;79.70
38592;DHT22;24356;48.460;11.450;2023-04-25T14:50:02;10.80;79.50
38592;DHT22;24356;48.460;11.450;2023-04-25T14:52:27;10.80;79.40
38592;DHT22;24356;48.460;11.450;2023-04-25T14:54:53;10.70;79.20
38592;DHT22;24356;48.460;11.450;2023-04-25T14:57:19;10.60;78.70
38592;DHT22;24356;48.460;11.450;2023-04-25T14:59:45;10.50;79.80
38592;DHT22;24356;48.460;11.450;2023-04-25T15:02:11;10.40;80.10
38592;DHT22;24356;48.460;11.450;2023-04-25T15:04:36;10.20;80.30
38592;DHT22;24356;48.460;11.450;2023-04-25T15:07:02;10.10;79.90
38592;DHT22;24356;48.460;11.450;2023-04-25T15:09:28;10.00;80.00
38592;DHT22;24356;48.460;11.450;2023-04-25T15:11:53;9.90;80.20
38592;DHT22;24356;48.460;11.450;2023-04-25T15:14:19;9.90;81.00
38592;DHT22;24356;48.460;11.450;2023-04-25T15:16:45;9.80;81.10
38592;DHT22;24356;48.460;11.450;2023-04-25T15:19:11;9.80;80.60
38592;DHT22;24356;48.460;11.450;2023-04-25T15:21:36;9.80;80.90
38592;DHT22;24356;48.460;11.450;2023-04-25T15:24:02;9.80;81.20
38592;DHT22;24356;48.460;11.450;2023-04-25T15:26:28;9.70;80.80
38592;DHT22;24356;48.460;11.450;2023-04-25T15:28:53;9.70;80.20
38592;DHT22;24356;48.460;11.450;2023-04-25T15:31:19;9.70;80.10
38592;DHT22;24356;48.460;11.450;2023-04-25T15:33:46;9.80;81.70